Time;durP1;ratioP1;P1;durP2;ratioP2;P2;SDS_P1;SDS_P2;PMS_P1;PMS_P2;Temp;Humidity;BMP_temperature;BMP_pressure;BME280_temperature;BME280_humidity;BME280_pressure;Samples;Min_cycle;Max_cycle;Signal;HPM_P1;HPM_P2
2023/03/17 00:01:39;;;;;;;0.20;0.20;;;;;;;8.80;53.54;100505.16;5030008;28;20040;-48
2023/03/17 00:04:09;;;;;;;0.20;0.20;;;;;;;8.81;53.52;100495.19;5043720;28;20060;-50
2023/03/17 00:06:40;;;;;;;0.20;0.20;;;;;;;8.88;53.39;100496.13;5046487;28;20045;-48
2023/03/17 00:09:13;;;;;;;0.20;0.20;;;;;;;8.60;54.25;100500.81;5036438;28;20068;-46
2023/03/17 00:11:40;;;;;;;0.20;0.20;;;;;;;8.67;54.06;100505.59;5033669;28;20400;-48
2023/03/17 00:14:05;;;;;;;0.13;0.13;;;;;;;8.56;54.46;100504.50;5049719;28;20025;-51
2023/03/17 00:16:35;;;;;;;0.20;0.20;;;;;;;8.48;54.57;100511.59;5037096;28;20502;-49
2023/03/17 00:19:00;;;;;;;0.20;0.20;;;;;;;8.63;54.81;100513.53;5041284;28;20035;-47
2023/03/17 00:21:29;;;;;;;0.20;0.20;;;;;;;8.65;54.52;100502.47;5029421;28;20029;-47
2023/03/17 00:23:56;;;;;;;0.22;0.22;;;;;;;8.56;54.87;100494.56;5034063;28;20036;-47
2023/03/17 00:26:23;;;;;;;0.20;0.20;;;;;;;8.84;54.54;100497.19;5031271;28;20037;-50
2023/03/17 00:28:50;;;;;;;0.20;0.20;;;;;;;8.79;54.77;100489.38;5034431;28;20396;-50
2023/03/17 00:31:19;;;;;;;0.20;0.20;;;;;;;8.67;54.69;100492.16;5027925;28;20035;-50
2023/03/17 00:33:46;;;;;;;0.20;0.20;;;;;;;8.72;54.87;100503.41;5038075;28;20041;-46
2023/03/17 00:36:21;;;;;;;0.20;0.20;;;;;;;8.59;55.07;100501.94;5040358;28;20392;-50
2023/03/17 00:38:47;;;;;;;0.30;0.30;;;;;;;8.52;55.64;100487.53;5039997;28;20129;-47
2023/03/17 00:41:13;;;;;;;0.30;0.30;;;;;;;8.56;55.71;100496.47;5032172;28;20037;-48
2023/03/17 00:43:39;;;;;;;0.20;0.20;;;;;;;8.67;55.87;100482.19;5037192;28;20029;-49
2023/03/17 00:46:13;;;;;;;0.20;0.20;;;;;;;8.54;55.48;100479.91;5036911;28;20087;-49
2023/03/17 00:48:40;;;;;;;0.20;0.20;;;;;;;8.55;55.90;100487.66;5037899;28;20040;-49
2023/03/17 00:51:06;;;;;;;0.20;0.20;;;;;;;8.37;56.34;100475.66;5041988;28;20045;-46
2023/03/17 00:53:31;;;;;;;0.38;0.30;;;;;;;8.47;56.28;100485.13;5052379;28;20032;-49
2023/03/17 00:55:58;;;;;;;0.28;0.28;;;;;;;8.56;56.08;100485.72;5055783;28;20031;-50
2023/03/17 00:58:29;;;;;;;0.20;0.20;;;;;;;8.60;56.34;100473.97;5049677;28;20021;-48
2023/03/17 01:00:55;;;;;;;0.20;0.20;;;;;;;8.58;56.11;100473.53;5037189;28;20083;-47
2023/03/17 01:03:21;;;;;;;0.20;0.20;;;;;;;8.60;56.06;100481.22;5050092;28;20040;-47
2023/03/17 01:05:48;;;;;;;0.20;0.20;;;;;;;8.72;55.89;100476.56;5043966;28;20025;-48
2023/03/17 01:08:15;;;;;;;0.20;0.20;;;;;;;8.50;56.49;100471.78;5031846;28;20034;-49
2023/03/17 01:10:41;;;;;;;0.20;0.20;;;;;;;8.53;56.73;100462.28;5028346;28;20065;-47
2023/03/17 01:13:11;;;;;;;0.20;0.20;;;;;;;8.31;56.98;100457.47;5030488;28;20029;-48
2023/03/17 01:15:44;;;;;;;0.20;0.20;;;;;;;8.28;57.11;100453.59;5039307;28;20115;-49
2023/03/17 01:18:12;;;;;;;0.20;0.20;;;;;;;8.41;57.51;100447.03;5032449;28;20108;-48
2023/03/17 01:20:38;;;;;;;0.20;0.20;;;;;;;8.47;57.12;100451.03;5022095;28;20109;-47
2023/03/17 01:23:04;;;;;;;0.20;0.20;;;;;;;8.56;56.88;100457.00;5024042;28;20560;-46
2023/03/17 01:25:50;;;;;;;0.20;0.20;;;;;;;8.39;57.03;100460.00;5038962;28;20068;-47
2023/03/17 01:28:18;;;;;;;0.20;0.20;;;;;;;8.38;57.15;100471.09;4985201;28;20056;-47
2023/03/17 01:30:45;;;;;;;0.20;0.20;;;;;;;8.33;57.28;100479.38;4986545;28;20039;-46
2023/03/17 01:33:12;;;;;;;0.20;0.20;;;;;;;8.17;57.87;100479.31;4975608;28;20038;-48
2023/03/17 01:35:38;;;;;;;0.20;0.20;;;;;;;8.27;57.86;100476.16;4991407;28;20149;-49
2023/03/17 01:38:05;;;;;;;0.20;0.20;;;;;;;8.32;57.77;100467.88;4973758;28;20493;-46
2023/03/17 01:40:34;;;;;;;0.13;0.13;;;;;;;8.45;57.64;100461.31;4991946;28;20050;-48
2023/03/17 01:43:16;;;;;;;0.40;0.40;;;;;;;8.43;57.35;100468.16;4990905;28;20053;-52
2023/03/17 01:46:21;;;;;;;0.20;0.20;;;;;;;8.19;58.20;100466.34;4992848;28;20117;-48
2023/03/17 01:48:55;;;;;;;0.20;0.20;;;;;;;7.90;59.26;100456.75;4964667;28;20069;-49
2023/03/17 01:51:31;;;;;;;0.20;0.20;;;;;;;8.01;58.93;100457.81;4974176;28;20061;-50
2023/03/17 01:54:00;;;;;;;0.95;0.50;;;;;;;7.98;59.12;100447.78;4975135;28;20038;-52
2023/03/17 01:56:27;;;;;;;0.20;0.20;;;;;;;8.23;58.85;100450.38;4973803;28;20022;-55
2023/03/17 01:58:55;;;;;;;0.20;0.20;;;;;;;8.36;58.69;100444.63;4990144;28;20501;-46
2023/03/17 02:01:27;;;;;;;0.20;0.20;;;;;;;8.29;58.41;100441.72;4970176;28;20030;-53
2023/03/17 02:03:54;;;;;;;0.13;0.13;;;;;;;8.23;58.64;100442.31;4987574;28;20069;-49
2023/03/17 02:06:20;;;;;;;0.13;0.13;;;;;;;8.21;59.09;100448.00;5033166;28;20381;-46
2023/03/17 02:08:46;;;;;;;0.20;0.20;;;;;;;8.04;59.54;100441.06;5034893;28;20098;-46
2023/03/17 02:11:13;;;;;;;0.10;0.10;;;;;;;7.87;60.38;100435.22;5049661;28;20472;-46
2023/03/17 02:13:40;;;;;;;0.20;0.20;;;;;;;8.10;59.67;100436.22;5046964;28;20052;-46
2023/03/17 02:16:06;;;;;;;0.20;0.20;;;;;;;8.15;59.24;100434.06;5045483;28;20033;-48
2023/03/17 02:18:32;;;;;;;0.20;0.20;;;;;;;8.14;59.73;100431.72;5046402;28;20048;-46
2023/03/17 02:21:40;;;;;;;0.20;0.20;;;;;;;8.10;59.61;100422.81;5031764;28;20366;-46
2023/03/17 02:24:18;;;;;;;0.20;0.20;;;;;;;8.23;59.34;100415.50;5015322;28;20054;-51
2023/03/17 02:26:46;;;;;;;0.25;0.25;;;;;;;8.22;59.62;100409.34;5031385;28;20543;-49
2023/03/17 02:29:11;;;;;;;0.20;0.20;;;;;;;8.15;59.67;100409.16;5030021;28;20025;-51
2023/03/17 02:31:39;;;;;;;0.20;0.20;;;;;;;8.11;60.10;100400.22;5027178;28;20036;-49
2023/03/17 02:34:05;;;;;;;0.40;0.40;;;;;;;7.93;60.23;100396.31;5037501;28;20033;-50
2023/03/17 02:36:31;;;;;;;0.20;0.20;;;;;;;7.78;60.96;100397.81;5045333;28;20059;-45
2023/03/17 02:38:56;;;;;;;0.20;0.20;;;;;;;7.98;60.50;100404.09;5040632;28;20087;-46
2023/03/17 02:41:22;;;;;;;0.60;0.40;;;;;;;7.85;61.39;100405.28;5026630;28;20405;-48
2023/03/17 02:43:47;;;;;;;0.20;0.20;;;;;;;7.84;61.45;100393.03;5035750;28;20025;-47
2023/03/17 02:46:13;;;;;;;0.10;0.10;;;;;;;8.01;61.21;100406.13;5036455;28;20068;-51
2023/03/17 02:48:40;;;;;;;0.20;0.20;;;;;;;7.95;61.29;100407.47;5037803;28;20399;-51
2023/03/17 02:51:05;;;;;;;0.20;0.20;;;;;;;8.12;60.74;100399.13;5036889;28;20380;-48
2023/03/17 02:53:31;;;;;;;0.20;0.20;;;;;;;7.88;60.99;100404.59;5039548;28;20029;-49
2023/03/17 02:55:57;;;;;;;0.20;0.20;;;;;;;7.97;61.48;100407.91;5037153;28;20037;-50
2023/03/17 02:58:22;;;;;;;0.20;0.20;;;;;;;7.97;60.59;100391.84;5029924;28;20060;-51
2023/03/17 03:00:48;;;;;;;0.30;0.30;;;;;;;8.01;61.28;100390.78;5034849;28;20546;-47
2023/03/17 03:03:15;;;;;;;0.20;0.20;;;;;;;8.13;60.50;100401.44;5038484;28;20087;-48
2023/03/17 03:05:41;;;;;;;0.20;0.20;;;;;;;8.16;60.57;100402.69;5039895;28;20033;-48
2023/03/17 03:08:07;;;;;;;0.30;0.30;;;;;;;8.06;61.36;100403.16;5033367;28;20056;-49
2023/03/17 03:10:33;;;;;;;0.20;0.20;;;;;;;8.16;61.10;100405.34;5029577;28;20040;-48
2023/03/17 03:12:58;;;;;;;0.20;0.20;;;;;;;8.23;60.61;100406.31;5036939;28;20064;-52
2023/03/17 03:15:24;;;;;;;0.25;0.25;;;;;;;8.08;60.36;100403.59;5032858;28;20033;-46
2023/03/17 03:17:50;;;;;;;0.20;0.20;;;;;;;8.14;60.69;100411.06;5032177;28;20059;-49
2023/03/17 03:20:15;;;;;;;0.22;0.22;;;;;;;8.13;60.60;100411.38;5034662;28;20555;-50
2023/03/17 03:22:41;;;;;;;0.17;0.17;;;;;;;7.87;61.82;100417.25;5030716;28;20041;-47
2023/03/17 03:25:07;;;;;;;0.20;0.20;;;;;;;8.06;61.85;100420.03;5029477;28;20473;-47
2023/03/17 03:27:33;;;;;;;0.20;0.20;;;;;;;7.93;62.11;100415.88;5025416;28;20034;-50
2023/03/17 03:29:59;;;;;;;0.20;0.20;;;;;;;8.04;62.04;100414.25;5030901;28;20445;-47
2023/03/17 03:32:26;;;;;;;0.20;0.20;;;;;;;8.20;61.35;100412.38;5015839;28;20034;-47
2023/03/17 03:34:52;;;;;;;0.20;0.20;;;;;;;7.90;62.08;100403.13;5016225;28;20033;-47
2023/03/17 03:37:17;;;;;;;0.20;0.20;;;;;;;7.60;63.76;100395.78;5018867;28;20156;-49
2023/03/17 03:39:43;;;;;;;0.20;0.20;;;;;;;7.77;63.45;100403.53;5030595;28;21443;-45
2023/03/17 03:42:09;;;;;;;0.20;0.20;;;;;;;7.94;62.64;100393.28;5028594;28;21946;-46
2023/03/17 03:44:34;;;;;;;0.20;0.20;;;;;;;8.04;61.65;100402.72;5016320;28;20034;-45
2023/03/17 03:47:00;;;;;;;0.20;0.20;;;;;;;7.88;62.99;100394.66;5023810;28;20124;-50
2023/03/17 03:49:26;;;;;;;0.20;0.20;;;;;;;8.10;61.94;100409.41;5022049;28;20056;-49
2023/03/17 03:51:51;;;;;;;0.20;0.20;;;;;;;7.98;62.67;100415.63;5022448;28;20044;-48
2023/03/17 03:54:16;;;;;;;0.20;0.20;;;;;;;7.97;62.38;100397.19;5039097;28;20068;-47
2023/03/17 03:56:42;;;;;;;0.20;0.20;;;;;;;8.10;62.69;100382.59;5028505;28;20076;-48
2023/03/17 03:59:08;;;;;;;0.20;0.20;;;;;;;8.01;62.59;100376.63;5026796;28;20484;-48
2023/03/17 04:01:34;;;;;;;0.20;0.20;;;;;;;8.07;62.12;100365.28;5030500;28;20044;-48
2023/03/17 04:04:00;;;;;;;0.20;0.20;;;;;;;7.88;62.54;100351.78;5026429;28;20048;-50
2023/03/17 04:06:26;;;;;;;0.20;0.20;;;;;;;7.83;62.94;100348.56;5030455;28;20022;-46
2023/03/17 04:08:51;;;;;;;0.32;0.32;;;;;;;7.90;62.53;100365.59;5042238;28;20039;-47
2023/03/17 04:11:17;;;;;;;0.60;0.60;;;;;;;7.85;62.82;100373.13;5034607;28;20616;-49
2023/03/17 04:13:42;;;;;;;0.20;0.20;;;;;;;7.88;62.87;100345.63;5027908;28;20087;-47
2023/03/17 04:16:08;;;;;;;1.08;0.65;;;;;;;7.86;62.83;100332.56;5032165;28;20025;-46
2023/03/17 04:18:34;;;;;;;0.20;0.20;;;;;;;7.64;63.69;100343.09;5030258;28;20042;-51
2023/03/17 04:21:00;;;;;;;0.20;0.20;;;;;;;7.63;63.77;100336.16;5028207;28;20033;-47
2023/03/17 04:23:26;;;;;;;0.20;0.20;;;;;;;7.69;63.63;100340.94;5033590;28;20254;-49
2023/03/17 04:25:52;;;;;;;0.20;0.20;;;;;;;7.50;64.08;100322.03;5029208;28;20041;-50
2023/03/17 04:28:18;;;;;;;0.20;0.20;;;;;;;7.46;64.48;100328.41;5030192;28;20018;-49
2023/03/17 04:30:44;;;;;;;0.20;0.20;;;;;;;7.56;64.07;100325.25;5017396;28;20045;-46
2023/03/17 04:33:09;;;;;;;0.28;0.28;;;;;;;7.62;64.23;100331.94;5024305;28;20045;-46
2023/03/17 04:35:35;;;;;;;0.68;0.68;;;;;;;7.67;63.41;100329.78;5018450;28;20044;-46
2023/03/17 04:38:00;;;;;;;0.20;0.20;;;;;;;7.85;62.76;100335.59;5019193;28;20471;-49
2023/03/17 04:40:26;;;;;;;0.28;0.28;;;;;;;7.89;62.59;100339.16;5027285;28;20060;-49
2023/03/17 04:42:51;;;;;;;0.20;0.20;;;;;;;7.88;62.19;100350.97;5027241;28;20590;-46
2023/03/17 04:45:17;;;;;;;0.50;0.50;;;;;;;7.60;62.90;100339.53;5015940;28;20519;-46
2023/03/17 04:47:45;;;;;;;0.30;0.30;;;;;;;7.57;63.54;100340.22;5027366;28;20029;-49
2023/03/17 04:50:31;;;;;;;0.20;0.20;;;;;;;7.68;63.33;100335.91;5014372;28;20029;-47
2023/03/17 04:52:57;;;;;;;0.30;0.30;;;;;;;7.76;62.78;100340.34;4944720;29;20506;-49
2023/03/17 04:55:22;;;;;;;0.20;0.20;;;;;;;7.84;63.07;100344.78;4947152;29;20086;-46
2023/03/17 04:57:48;;;;;;;0.30;0.30;;;;;;;7.68;63.19;100335.91;4945782;29;20129;-46
2023/03/17 05:00:14;;;;;;;0.20;0.20;;;;;;;7.56;62.90;100354.72;4940258;29;20043;-48
2023/03/17 05:02:40;;;;;;;1.95;1.00;;;;;;;7.32;64.71;100340.31;4929013;29;20043;-50
2023/03/17 05:05:05;;;;;;;2.40;0.47;;;;;;;7.44;64.44;100336.00;4940384;28;20138;-48
2023/03/17 05:07:31;;;;;;;0.20;0.20;;;;;;;7.51;64.71;100347.69;4937169;29;20103;-46
2023/03/17 05:09:56;;;;;;;0.20;0.20;;;;;;;7.59;63.57;100335.31;4929705;28;20151;-46
2023/03/17 05:12:22;;;;;;;0.20;0.20;;;;;;;7.35;65.37;100320.09;4933563;29;20925;-46
2023/03/17 05:14:47;;;;;;;0.20;0.20;;;;;;;7.48;64.48;100315.47;4933742;28;20051;-48
2023/03/17 05:17:13;;;;;;;0.57;0.57;;;;;;;7.63;64.37;100328.91;4931517;29;20052;-48
2023/03/17 05:19:39;;;;;;;0.20;0.20;;;;;;;7.67;64.28;100331.66;4926691;28;20106;-49
2023/03/17 05:22:05;;;;;;;0.30;0.30;;;;;;;7.42;65.14;100319.50;4932245;28;20036;-51
2023/03/17 05:24:30;;;;;;;0.20;0.20;;;;;;;7.51;64.46;100320.91;4934121;28;20051;-49
2023/03/17 05:26:56;;;;;;;0.38;0.38;;;;;;;7.61;64.73;100325.00;4935615;29;20475;-48
2023/03/17 05:29:21;;;;;;;0.20;0.20;;;;;;;7.43;65.40;100313.84;4967137;28;20053;-48
2023/03/17 05:31:47;;;;;;;0.25;0.25;;;;;;;7.44;65.88;100322.63;5025704;28;20041;-46
2023/03/17 05:34:14;;;;;;;0.40;0.40;;;;;;;7.37;66.08;100307.16;5023780;28;20056;-46
2023/03/17 05:36:39;;;;;;;0.20;0.20;;;;;;;7.51;65.54;100310.19;5009887;28;21099;-47
2023/03/17 05:39:05;;;;;;;0.20;0.20;;;;;;;7.57;64.99;100305.41;5014254;28;20037;-46
2023/03/17 05:41:32;;;;;;;0.35;0.35;;;;;;;7.54;65.34;100295.34;5016665;28;20039;-46
2023/03/17 05:43:58;;;;;;;0.30;0.30;;;;;;;7.61;65.09;100284.81;5029382;28;20033;-52
2023/03/17 05:46:23;;;;;;;0.30;0.30;;;;;;;7.33;65.99;100292.88;5023063;28;20045;-48
2023/03/17 05:48:49;;;;;;;0.20;0.20;;;;;;;7.46;65.90;100288.25;5027078;28;20060;-51
2023/03/17 05:51:14;;;;;;;0.20;0.20;;;;;;;7.60;64.91;100289.41;5036028;28;20044;-47
2023/03/17 05:53:40;;;;;;;0.20;0.20;;;;;;;7.35;66.30;100297.91;5022544;28;20036;-46
2023/03/17 05:56:06;;;;;;;0.20;0.20;;;;;;;7.33;66.46;100295.56;5015980;28;20416;-52
2023/03/17 05:58:32;;;;;;;0.20;0.20;;;;;;;7.38;66.67;100292.63;5012519;28;20030;-47
2023/03/17 06:00:58;;;;;;;0.32;0.32;;;;;;;7.24;66.32;100289.56;5010713;28;20040;-48
2023/03/17 06:03:26;;;;;;;0.20;0.20;;;;;;;7.21;67.12;100285.69;5022235;28;20064;-46
2023/03/17 06:05:55;;;;;;;0.30;0.30;;;;;;;7.39;66.50;100293.41;5033727;28;20041;-51
2023/03/17 06:08:21;;;;;;;0.20;0.20;;;;;;;7.47;66.23;100289.81;5019388;28;20060;-50
2023/03/17 06:10:46;;;;;;;0.30;0.30;;;;;;;7.35;66.43;100289.88;5026439;28;20504;-47
2023/03/17 06:13:12;;;;;;;0.20;0.20;;;;;;;7.40;66.05;100286.94;5017620;28;20066;-47
2023/03/17 06:15:37;;;;;;;0.30;0.30;;;;;;;7.49;65.75;100285.66;5028081;28;20028;-48
2023/03/17 06:18:04;;;;;;;0.20;0.20;;;;;;;7.66;65.14;100290.72;5015600;28;20034;-47
2023/03/17 06:20:33;;;;;;;0.38;0.38;;;;;;;7.57;66.18;100292.75;5019894;28;20080;-49
2023/03/17 06:22:59;;;;;;;0.25;0.25;;;;;;;7.60;65.22;100293.97;5025885;28;20037;-52
2023/03/17 06:25:25;;;;;;;0.40;0.40;;;;;;;7.64;65.39;100286.81;5018032;28;20065;-47
2023/03/17 06:27:53;;;;;;;0.30;0.30;;;;;;;7.53;65.67;100285.78;5010806;28;20117;-51
2023/03/17 06:30:20;;;;;;;0.20;0.20;;;;;;;7.56;65.58;100288.53;5011517;28;20384;-48
2023/03/17 06:32:46;;;;;;;0.30;0.30;;;;;;;7.61;66.00;100287.47;5011839;28;20045;-48
2023/03/17 06:35:12;;;;;;;0.30;0.30;;;;;;;7.53;65.91;100293.81;5027535;28;20033;-50
2023/03/17 06:37:37;;;;;;;0.40;0.40;;;;;;;7.67;65.73;100288.78;5025192;28;20088;-51
2023/03/17 06:40:07;;;;;;;0.20;0.20;;;;;;;7.73;66.03;100298.13;5026457;28;20037;-50
2023/03/17 06:42:33;;;;;;;0.95;0.40;;;;;;;7.91;64.59;100285.97;5018119;28;20052;-52
2023/03/17 06:44:59;;;;;;;0.20;0.20;;;;;;;7.80;65.47;100290.31;5039581;28;20124;-48
2023/03/17 06:47:24;;;;;;;0.32;0.32;;;;;;;7.90;65.72;100279.03;5031536;28;20037;-47
2023/03/17 06:49:49;;;;;;;0.20;0.20;;;;;;;8.05;64.63;100284.41;5044641;28;20040;-47
2023/03/17 06:52:15;;;;;;;0.20;0.20;;;;;;;8.09;65.05;100281.84;5048453;28;20046;-50
2023/03/17 06:54:41;;;;;;;0.25;0.25;;;;;;;7.99;64.52;100285.03;5031864;28;20400;-47
2023/03/17 06:57:08;;;;;;;0.25;0.25;;;;;;;7.64;65.20;100297.53;5041519;28;20020;-49
2023/03/17 06:59:34;;;;;;;0.20;0.20;;;;;;;7.64;65.86;100292.19;5031137;28;20065;-51
2023/03/17 07:01:59;;;;;;;0.30;0.30;;;;;;;7.98;65.01;100294.19;5040723;28;20095;-50
2023/03/17 07:04:25;;;;;;;0.20;0.20;;;;;;;7.84;64.99;100302.66;5035513;28;20036;-50
2023/03/17 07:06:51;;;;;;;0.20;0.20;;;;;;;7.70;66.19;100304.97;5014350;28;20236;-50
2023/03/17 07:09:16;;;;;;;0.35;0.35;;;;;;;7.95;65.78;100297.56;5029794;28;20072;-48
2023/03/17 07:11:42;;;;;;;0.20;0.20;;;;;;;7.97;65.32;100303.38;5032009;28;20021;-48
2023/03/17 07:14:07;;;;;;;1.50;0.60;;;;;;;8.07;65.60;100297.50;5031511;28;20152;-50
2023/03/17 07:16:33;;;;;;;0.10;0.10;;;;;;;8.34;65.01;100288.59;5027174;28;20033;-49
2023/03/17 07:19:00;;;;;;;0.20;0.20;;;;;;;8.36;64.75;100286.34;5031694;28;20037;-50
2023/03/17 07:21:26;;;;;;;0.20;0.20;;;;;;;8.50;63.68;100281.28;5035587;28;20033;-48
2023/03/17 07:23:52;;;;;;;0.22;0.22;;;;;;;8.50;62.28;100293.91;5036129;28;20045;-50
2023/03/17 07:26:17;;;;;;;0.20;0.20;;;;;;;8.59;62.69;100297.19;5037075;28;20028;-48
2023/03/17 07:28:43;;;;;;;0.20;0.20;;;;;;;8.79;61.37;100299.56;5031500;28;20480;-50
2023/03/17 07:31:12;;;;;;;0.30;0.30;;;;;;;8.95;61.12;100297.59;5029819;28;20428;-48
2023/03/17 07:33:38;;;;;;;0.20;0.20;;;;;;;9.15;61.00;100305.66;5030746;28;20044;-51
2023/03/17 07:36:06;;;;;;;0.20;0.20;;;;;;;9.09;61.26;100286.38;5025323;28;20053;-49
2023/03/17 07:38:32;;;;;;;0.20;0.20;;;;;;;9.07;60.50;100294.78;5026452;28;20032;-49
2023/03/17 07:40:58;;;;;;;0.30;0.30;;;;;;;9.17;60.18;100298.81;5025450;28;20096;-48
2023/03/17 07:43:23;;;;;;;0.30;0.30;;;;;;;9.42;59.77;100302.75;5023628;28;20046;-51
2023/03/17 07:45:49;;;;;;;0.20;0.20;;;;;;;9.45;58.86;100298.56;5032534;28;20048;-50
2023/03/17 07:48:15;;;;;;;0.52;0.20;;;;;;;9.52;59.68;100301.41;5050581;28;20020;-47
2023/03/17 07:50:41;;;;;;;0.20;0.20;;;;;;;9.76;59.93;100306.44;5037665;28;20090;-49
2023/03/17 07:53:07;;;;;;;0.10;0.10;;;;;;;10.16;57.63;100295.25;5018611;28;20037;-47
2023/03/17 07:55:34;;;;;;;0.10;0.10;;;;;;;10.39;57.47;100287.91;5031094;28;20037;-47
2023/03/17 07:58:00;;;;;;;0.20;0.20;;;;;;;10.78;55.98;100289.25;5030299;28;20037;-52
2023/03/17 08:00:27;;;;;;;0.10;0.10;;;;;;;10.41;56.40;100291.81;5032825;28;20049;-48
2023/03/17 08:02:54;;;;;;;0.10;0.10;;;;;;;10.31;55.74;100292.41;5041413;28;20427;-47
2023/03/17 08:05:20;;;;;;;0.10;0.10;;;;;;;10.25;56.62;100287.69;5043181;28;20719;-50
2023/03/17 08:07:46;;;;;;;0.10;0.10;;;;;;;10.30;57.16;100285.47;5019707;28;20127;-48
2023/03/17 08:10:12;;;;;;;0.20;0.20;;;;;;;10.57;56.73;100286.25;5035763;28;20021;-47
2023/03/17 08:12:38;;;;;;;0.10;0.10;;;;;;;10.95;54.64;100293.31;5035835;28;20037;-48
2023/03/17 08:15:05;;;;;;;0.45;0.40;;;;;;;11.18;54.62;100288.59;5034123;28;20424;-49
2023/03/17 08:17:30;;;;;;;0.10;0.10;;;;;;;11.40;53.37;100282.31;5031990;28;20745;-49
2023/03/17 08:19:56;;;;;;;0.20;0.20;;;;;;;11.45;53.32;100292.75;5034289;28;20058;-47
2023/03/17 08:22:22;;;;;;;0.10;0.10;;;;;;;11.73;53.26;100285.75;5032626;28;20045;-48
2023/03/17 08:24:48;;;;;;;0.10;0.10;;;;;;;11.85;53.13;100265.03;5033629;28;20437;-48
2023/03/17 08:27:15;;;;;;;0.10;0.10;;;;;;;12.05;53.11;100260.97;5035113;28;20117;-46
2023/03/17 08:29:41;;;;;;;0.00;0.00;;;;;;;11.84;52.70;100252.69;5031482;28;20120;-48
2023/03/17 08:32:07;;;;;;;0.32;0.32;;;;;;;12.40;51.81;100270.09;5034206;28;20104;-47
2023/03/17 08:34:33;;;;;;;0.10;0.10;;;;;;;12.76;51.18;100262.97;5033990;28;20036;-47
2023/03/17 08:37:00;;;;;;;0.10;0.10;;;;;;;12.74;51.16;100262.56;5024690;28;20036;-47
2023/03/17 08:39:26;;;;;;;0.10;0.10;;;;;;;12.90;50.04;100273.84;5036963;28;20083;-47
2023/03/17 08:41:51;;;;;;;0.00;0.00;;;;;;;13.01;50.02;100269.25;5033973;28;20030;-48
2023/03/17 08:44:17;;;;;;;0.10;0.10;;;;;;;13.08;49.46;100271.25;5033793;28;20454;-47
2023/03/17 08:46:43;;;;;;;0.65;0.38;;;;;;;13.18;48.84;100271.28;5035370;28;20029;-48
2023/03/17 08:49:09;;;;;;;0.05;0.05;;;;;;;13.22;48.26;100274.00;5022584;28;20137;-50
2023/03/17 08:51:36;;;;;;;0.03;0.03;;;;;;;12.99;48.40;100282.38;5037915;28;20112;-47
2023/03/17 08:54:03;;;;;;;0.00;0.00;;;;;;;13.45;48.76;100279.88;5037085;28;20559;-51
2023/03/17 08:56:28;;;;;;;0.30;0.30;;;;;;;13.17;48.51;100287.88;5035510;28;20036;-49
2023/03/17 08:58:54;;;;;;;0.10;0.10;;;;;;;13.13;48.59;100284.41;5033806;28;20038;-49
2023/03/17 09:01:21;;;;;;;0.05;0.05;;;;;;;13.67;48.28;100283.38;5029219;28;20018;-48
2023/03/17 09:03:48;;;;;;;0.00;0.00;;;;;;;13.50;48.26;100282.97;5033838;28;20041;-49
2023/03/17 09:06:14;;;;;;;0.00;0.00;;;;;;;13.51;48.52;100272.94;5024480;28;20497;-47
2023/03/17 09:08:43;;;;;;;0.20;0.10;;;;;;;13.51;48.14;100270.22;5030259;28;20048;-47
2023/03/17 09:11:13;;;;;;;0.00;0.00;;;;;;;13.69;47.95;100256.72;5034943;28;20037;-47
2023/03/17 09:13:40;;;;;;;0.00;0.00;;;;;;;13.65;48.02;100266.75;5036307;28;20224;-49
2023/03/17 09:16:07;;;;;;;0.10;0.10;;;;;;;14.06;47.81;100252.47;5032981;28;20476;-47
2023/03/17 09:18:33;;;;;;;0.10;0.10;;;;;;;14.38;47.28;100261.38;5034095;28;20051;-51
2023/03/17 09:20:59;;;;;;;0.08;0.08;;;;;;;14.66;46.84;100262.47;5038256;28;20041;-47
2023/03/17 09:23:25;;;;;;;0.10;0.10;;;;;;;14.27;47.06;100262.50;5033527;28;20704;-48
2023/03/17 09:25:51;;;;;;;0.13;0.13;;;;;;;13.70;47.52;100250.94;5036144;28;20028;-47
2023/03/17 09:28:17;;;;;;;0.30;0.17;;;;;;;14.55;46.92;100251.66;5034009;28;20037;-47
2023/03/17 09:30:43;;;;;;;0.00;0.00;;;;;;;15.04;45.41;100256.16;5036428;28;20103;-46
2023/03/17 09:33:10;;;;;;;0.00;0.00;;;;;;;15.35;45.57;100250.56;5035824;28;20108;-47
2023/03/17 09:35:37;;;;;;;0.20;0.20;;;;;;;15.18;45.08;100254.13;5019851;28;20030;-47
2023/03/17 09:38:02;;;;;;;0.00;0.00;;;;;;;15.54;44.77;100257.47;5030271;28;20438;-47
2023/03/17 09:40:48;;;;;;;0.25;0.25;;;;;;;15.79;44.51;100251.84;5037893;28;20034;-47
2023/03/17 09:43:35;;;;;;;0.08;0.08;;;;;;;16.04;43.82;100249.72;5032220;28;20492;-47
2023/03/17 09:46:24;;;;;;;0.20;0.10;;;;;;;16.82;42.80;100261.38;5028639;28;21003;-47
2023/03/17 09:48:58;;;;;;;0.20;0.15;;;;;;;16.92;42.67;100265.13;5018452;28;20041;-48
2023/03/17 09:51:24;;;;;;;0.00;0.00;;;;;;;16.23;42.55;100262.75;5035211;28;20514;-51
2023/03/17 09:54:02;;;;;;;0.63;0.10;;;;;;;15.19;44.56;100268.47;5026925;28;20385;-48
2023/03/17 09:56:31;;;;;;;0.13;0.10;;;;;;;15.32;45.65;100264.16;5033546;28;20512;-47
2023/03/17 09:59:23;;;;;;;0.10;0.10;;;;;;;15.59;44.94;100251.59;5027433;28;20046;-52
2023/03/17 10:01:49;;;;;;;0.10;0.10;;;;;;;15.72;45.11;100244.53;5033520;28;20044;-49
2023/03/17 10:04:16;;;;;;;0.43;0.43;;;;;;;16.03;44.32;100246.22;5033210;28;20033;-54
2023/03/17 10:06:45;;;;;;;0.00;0.00;;;;;;;15.40;44.93;100227.66;5029121;28;20061;-51
2023/03/17 10:09:35;;;;;;;0.25;0.25;;;;;;;15.66;45.31;100229.81;5034549;28;20507;-51
2023/03/17 10:12:39;;;;;;;0.10;0.10;;;;;;;15.31;45.30;100219.19;5045620;28;20021;-54
2023/03/17 10:15:28;;;;;;;0.00;0.00;;;;;;;15.36;45.35;100219.56;5025505;28;20053;-53
2023/03/17 10:17:53;;;;;;;0.00;0.00;;;;;;;15.77;44.64;100222.41;5036769;28;20060;-49
2023/03/17 10:20:32;;;;;;;0.15;0.10;;;;;;;15.96;44.90;100224.56;5048013;28;20093;-49
2023/03/17 10:23:02;;;;;;;0.10;0.10;;;;;;;15.80;44.38;100209.94;5050536;28;20511;-50
2023/03/17 10:25:31;;;;;;;0.00;0.00;;;;;;;15.51;44.79;100217.53;5040443;28;20068;-52
2023/03/17 10:28:06;;;;;;;0.00;0.00;;;;;;;15.28;45.67;100220.75;5029454;28;20057;-48
2023/03/17 10:30:33;;;;;;;0.00;0.00;;;;;;;15.62;44.96;100239.19;5049580;28;20036;-48
2023/03/17 10:33:02;;;;;;;0.40;0.10;;;;;;;15.15;45.53;100214.25;5053627;28;20093;-50
2023/03/17 10:35:28;;;;;;;0.00;0.00;;;;;;;15.07;46.21;100220.09;5041274;28;20037;-47
2023/03/17 10:37:54;;;;;;;0.00;0.00;;;;;;;15.62;45.30;100217.47;5041880;28;20029;-49
2023/03/17 10:40:25;;;;;;;0.03;0.03;;;;;;;15.43;45.49;100210.59;5041935;28;20048;-47
2023/03/17 10:42:55;;;;;;;0.10;0.10;;;;;;;15.58;45.40;100217.47;5038068;28;20105;-49
2023/03/17 10:45:29;;;;;;;0.00;0.00;;;;;;;15.76;44.69;100207.25;5045868;28;20044;-51
2023/03/17 10:47:57;;;;;;;0.00;0.00;;;;;;;15.83;45.14;100212.63;5051645;28;20036;-50
2023/03/17 10:50:27;;;;;;;0.00;0.00;;;;;;;16.19;45.67;100202.22;5050297;28;20100;-49
2023/03/17 10:52:59;;;;;;;0.08;0.08;;;;;;;16.36;43.91;100223.00;5052506;28;20029;-49
2023/03/17 10:55:31;;;;;;;2.15;0.95;;;;;;;16.16;44.20;100217.38;5053168;28;20056;-47
2023/03/17 10:58:03;;;;;;;0.20;0.20;;;;;;;15.58;45.03;100219.44;5044285;28;20040;-49
2023/03/17 11:00:34;;;;;;;0.35;0.10;;;;;;;16.10;44.10;100216.25;5053540;28;20511;-49
2023/03/17 11:03:09;;;;;;;0.52;0.05;;;;;;;16.31;45.14;100214.53;5051809;28;20033;-50
2023/03/17 11:05:36;;;;;;;0.00;0.00;;;;;;;16.63;44.95;100217.69;5047237;28;20030;-50
2023/03/17 11:08:16;;;;;;;0.10;0.10;;;;;;;16.70;44.47;100206.75;5030823;28;20079;-50
2023/03/17 11:10:42;;;;;;;0.00;0.00;;;;;;;16.61;44.08;100211.88;5042569;28;20032;-48
2023/03/17 11:13:07;;;;;;;0.43;0.32;;;;;;;16.40;45.05;100215.59;5051101;28;20512;-48
2023/03/17 11:15:45;;;;;;;0.00;0.00;;;;;;;16.75;44.89;100214.44;5040459;28;20025;-49
2023/03/17 11:18:21;;;;;;;0.05;0.05;;;;;;;17.12;43.67;100203.47;5051680;28;20036;-48
2023/03/17 11:20:53;;;;;;;0.10;0.10;;;;;;;16.87;43.42;100192.16;5050252;28;20438;-49
2023/03/17 11:23:43;;;;;;;0.10;0.10;;;;;;;16.62;44.36;100191.69;5034216;28;20038;-49
2023/03/17 11:26:32;;;;;;;0.00;0.00;;;;;;;16.97;44.58;100183.09;5028604;28;20082;-48
2023/03/17 11:29:18;;;;;;;0.20;0.20;;;;;;;17.29;44.04;100186.13;5050158;28;20295;-49
2023/03/17 11:32:21;;;;;;;0.03;0.00;;;;;;;17.22;44.34;100185.47;5035542;28;20104;-50
2023/03/17 11:35:01;;;;;;;0.00;0.00;;;;;;;17.36;43.42;100179.81;5027733;28;20492;-53
2023/03/17 11:37:44;;;;;;;0.00;0.00;;;;;;;17.47;43.40;100166.81;5034499;28;20026;-49